sensor_id;sensor_type;location;lat;lon;timestamp;P1;durP1;ratioP1;P2;durP2;ratioP2
55003;SDS011;40900;52.710;6.438;2023-01-31T00:01:18;22.08;;;4.13;;
55003;SDS011;40900;52.710;6.438;2023-01-31T00:03:53;31.60;;;4.65;;
55003;SDS011;40900;52.710;6.438;2023-01-31T00:06:20;35.58;;;5.80;;
55003;SDS011;40900;52.710;6.438;2023-01-31T00:08:50;33.75;;;5.60;;
55003;SDS011;40900;52.710;6.438;2023-01-31T00:11:19;28.73;;;5.05;;
55003;SDS011;40900;52.710;6.438;2023-01-31T00:13:46;30.60;;;4.25;;
55003;SDS011;40900;52.710;6.438;2023-01-31T00:16:13;29.75;;;3.97;;
55003;SDS011;40900;52.710;6.438;2023-01-31T00:18:39;33.45;;;4.90;;
55003;SDS011;40900;52.710;6.438;2023-01-31T00:21:19;33.58;;;3.80;;
55003;SDS011;40900;52.710;6.438;2023-01-31T00:23:47;27.60;;;4.50;;
55003;SDS011;40900;52.710;6.438;2023-01-31T00:26:21;28.88;;;4.90;;
55003;SDS011;40900;52.710;6.438;2023-01-31T00:28:54;29.75;;;4.28;;
55003;SDS011;40900;52.710;6.438;2023-01-31T00:31:22;29.17;;;4.53;;
55003;SDS011;40900;52.710;6.438;2023-01-31T00:33:49;25.50;;;4.25;;
55003;SDS011;40900;52.710;6.438;2023-01-31T00:36:20;23.50;;;3.72;;
55003;SDS011;40900;52.710;6.438;2023-01-31T00:38:48;26.08;;;3.70;;
55003;SDS011;40900;52.710;6.438;2023-01-31T00:41:17;20.98;;;3.85;;
55003;SDS011;40900;52.710;6.438;2023-01-31T00:43:43;36.33;;;4.30;;
55003;SDS011;40900;52.710;6.438;2023-01-31T00:46:09;22.98;;;4.28;;
55003;SDS011;40900;52.710;6.438;2023-01-31T00:48:34;25.75;;;3.72;;
55003;SDS011;40900;52.710;6.438;2023-01-31T00:51:00;27.42;;;4.00;;
55003;SDS011;40900;52.710;6.438;2023-01-31T00:53:26;23.58;;;4.90;;
55003;SDS011;40900;52.710;6.438;2023-01-31T00:55:53;26.70;;;3.50;;
55003;SDS011;40900;52.710;6.438;2023-01-31T00:58:20;26.25;;;4.38;;
55003;SDS011;40900;52.710;6.438;2023-01-31T01:00:46;31.50;;;4.75;;
55003;SDS011;40900;52.710;6.438;2023-01-31T01:03:12;22.30;;;3.50;;
55003;SDS011;40900;52.710;6.438;2023-01-31T01:05:38;29.13;;;4.50;;
55003;SDS011;40900;52.710;6.438;2023-01-31T01:08:04;26.13;;;3.50;;
55003;SDS011;40900;52.710;6.438;2023-01-31T01:10:30;34.08;;;4.57;;
55003;SDS011;40900;52.710;6.438;2023-01-31T01:12:56;36.70;;;4.20;;
55003;SDS011;40900;52.710;6.438;2023-01-31T01:15:22;25.33;;;3.40;;
55003;SDS011;40900;52.710;6.438;2023-01-31T01:17:47;27.90;;;4.05;;
55003;SDS011;40900;52.710;6.438;2023-01-31T01:20:14;29.08;;;4.55;;
55003;SDS011;40900;52.710;6.438;2023-01-31T01:22:40;28.25;;;4.28;;
55003;SDS011;40900;52.710;6.438;2023-01-31T01:25:07;23.95;;;3.47;;
55003;SDS011;40900;52.710;6.438;2023-01-31T01:27:33;24.27;;;3.97;;
55003;SDS011;40900;52.710;6.438;2023-01-31T01:29:59;35.78;;;4.03;;
55003;SDS011;40900;52.710;6.438;2023-01-31T01:32:26;28.52;;;3.30;;
55003;SDS011;40900;52.710;6.438;2023-01-31T01:34:52;14.68;;;2.95;;
55003;SDS011;40900;52.710;6.438;2023-01-31T01:37:18;29.15;;;3.58;;
55003;SDS011;40900;52.710;6.438;2023-01-31T01:39:49;26.17;;;3.45;;
55003;SDS011;40900;52.710;6.438;2023-01-31T01:42:19;24.42;;;3.63;;
55003;SDS011;40900;52.710;6.438;2023-01-31T01:44:48;18.80;;;3.60;;
55003;SDS011;40900;52.710;6.438;2023-01-31T01:49:42;26.95;;;4.10;;
55003;SDS011;40900;52.710;6.438;2023-01-31T01:52:10;21.35;;;3.35;;
55003;SDS011;40900;52.710;6.438;2023-01-31T01:54:40;23.10;;;3.38;;
55003;SDS011;40900;52.710;6.438;2023-01-31T01:57:13;20.35;;;3.45;;
55003;SDS011;40900;52.710;6.438;2023-01-31T01:59:44;25.42;;;3.97;;
55003;SDS011;40900;52.710;6.438;2023-01-31T02:02:15;26.77;;;4.10;;
55003;SDS011;40900;52.710;6.438;2023-01-31T02:04:41;19.63;;;3.80;;
55003;SDS011;40900;52.710;6.438;2023-01-31T02:07:11;21.10;;;4.10;;
55003;SDS011;40900;52.710;6.438;2023-01-31T02:09:43;23.70;;;3.30;;
55003;SDS011;40900;52.710;6.438;2023-01-31T02:12:25;25.88;;;3.15;;
55003;SDS011;40900;52.710;6.438;2023-01-31T02:14:52;25.60;;;3.70;;
55003;SDS011;40900;52.710;6.438;2023-01-31T02:17:18;30.13;;;4.07;;
55003;SDS011;40900;52.710;6.438;2023-01-31T02:20:03;27.88;;;4.18;;
55003;SDS011;40900;52.710;6.438;2023-01-31T02:23:06;26.58;;;4.13;;
55003;SDS011;40900;52.710;6.438;2023-01-31T02:34:25;20.02;;;3.00;;
55003;SDS011;40900;52.710;6.438;2023-01-31T02:42:23;27.70;;;3.33;;
55003;SDS011;40900;52.710;6.438;2023-01-31T02:45:02;26.23;;;5.55;;
55003;SDS011;40900;52.710;6.438;2023-01-31T02:47:50;33.58;;;4.57;;
55003;SDS011;40900;52.710;6.438;2023-01-31T02:50:38;23.80;;;3.60;;
55003;SDS011;40900;52.710;6.438;2023-01-31T02:53:30;16.85;;;3.17;;
55003;SDS011;40900;52.710;6.438;2023-01-31T02:59:01;38.13;;;5.30;;
55003;SDS011;40900;52.710;6.438;2023-01-31T03:01:31;20.33;;;3.90;;
55003;SDS011;40900;52.710;6.438;2023-01-31T03:04:07;20.23;;;3.22;;
55003;SDS011;40900;52.710;6.438;2023-01-31T03:09:11;27.52;;;3.53;;
55003;SDS011;40900;52.710;6.438;2023-01-31T03:11:50;20.95;;;3.88;;
55003;SDS011;40900;52.710;6.438;2023-01-31T03:14:41;27.48;;;3.45;;
55003;SDS011;40900;52.710;6.438;2023-01-31T03:20:34;25.70;;;3.70;;
55003;SDS011;40900;52.710;6.438;2023-01-31T03:23:15;26.98;;;3.63;;
55003;SDS011;40900;52.710;6.438;2023-01-31T03:25:43;34.13;;;4.30;;
55003;SDS011;40900;52.710;6.438;2023-01-31T03:28:12;24.45;;;3.70;;
55003;SDS011;40900;52.710;6.438;2023-01-31T03:30:48;22.27;;;4.20;;
55003;SDS011;40900;52.710;6.438;2023-01-31T03:33:23;18.88;;;3.25;;
55003;SDS011;40900;52.710;6.438;2023-01-31T03:36:05;21.00;;;3.50;;
55003;SDS011;40900;52.710;6.438;2023-01-31T03:41:54;17.88;;;3.92;;
55003;SDS011;40900;52.710;6.438;2023-01-31T03:47:17;17.70;;;3.45;;
55003;SDS011;40900;52.710;6.438;2023-01-31T03:50:20;27.27;;;4.10;;
55003;SDS011;40900;52.710;6.438;2023-01-31T03:53:00;27.77;;;4.70;;
55003;SDS011;40900;52.710;6.438;2023-01-31T03:55:33;22.83;;;4.07;;
55003;SDS011;40900;52.710;6.438;2023-01-31T03:58:01;33.60;;;5.13;;
55003;SDS011;40900;52.710;6.438;2023-01-31T04:00:29;24.40;;;4.03;;
55003;SDS011;40900;52.710;6.438;2023-01-31T04:03:09;29.33;;;4.22;;
55003;SDS011;40900;52.710;6.438;2023-01-31T04:05:56;23.42;;;5.10;;
55003;SDS011;40900;52.710;6.438;2023-01-31T04:08:22;28.15;;;4.18;;
55003;SDS011;40900;52.710;6.438;2023-01-31T04:10:49;35.00;;;5.65;;
55003;SDS011;40900;52.710;6.438;2023-01-31T04:13:15;29.38;;;4.90;;
55003;SDS011;40900;52.710;6.438;2023-01-31T04:15:41;31.90;;;5.40;;
55003;SDS011;40900;52.710;6.438;2023-01-31T04:18:06;30.80;;;6.72;;
55003;SDS011;40900;52.710;6.438;2023-01-31T04:20:32;30.77;;;4.97;;
55003;SDS011;40900;52.710;6.438;2023-01-31T04:22:58;31.77;;;5.50;;
55003;SDS011;40900;52.710;6.438;2023-01-31T04:25:24;34.53;;;5.35;;
55003;SDS011;40900;52.710;6.438;2023-01-31T04:27:50;27.83;;;5.38;;
55003;SDS011;40900;52.710;6.438;2023-01-31T04:30:16;21.30;;;5.13;;
55003;SDS011;40900;52.710;6.438;2023-01-31T04:32:42;28.88;;;5.53;;
55003;SDS011;40900;52.710;6.438;2023-01-31T04:35:07;25.80;;;5.35;;
55003;SDS011;40900;52.710;6.438;2023-01-31T04:37:33;31.38;;;5.57;;
55003;SDS011;40900;52.710;6.438;2023-01-31T04:39:59;27.95;;;4.95;;
55003;SDS011;40900;52.710;6.438;2023-01-31T04:42:25;26.90;;;5.43;;
55003;SDS011;40900;52.710;6.438;2023-01-31T04:44:51;33.70;;;5.50;;
55003;SDS011;40900;52.710;6.438;2023-01-31T04:47:17;30.17;;;5.93;;
55003;SDS011;40900;52.710;6.438;2023-01-31T04:49:42;34.10;;;6.18;;
55003;SDS011;40900;52.710;6.438;2023-01-31T04:52:08;34.15;;;6.32;;
55003;SDS011;40900;52.710;6.438;2023-01-31T04:54:35;22.98;;;4.82;;
55003;SDS011;40900;52.710;6.438;2023-01-31T04:57:01;33.42;;;6.53;;
55003;SDS011;40900;52.710;6.438;2023-01-31T04:59:27;27.15;;;5.57;;
55003;SDS011;40900;52.710;6.438;2023-01-31T05:01:53;32.20;;;6.72;;
55003;SDS011;40900;52.710;6.438;2023-01-31T05:04:19;33.22;;;6.00;;
55003;SDS011;40900;52.710;6.438;2023-01-31T05:06:46;33.20;;;6.53;;
55003;SDS011;40900;52.710;6.438;2023-01-31T05:09:12;37.17;;;7.28;;
55003;SDS011;40900;52.710;6.438;2023-01-31T05:11:37;28.80;;;6.38;;
55003;SDS011;40900;52.710;6.438;2023-01-31T05:14:03;40.70;;;7.05;;
55003;SDS011;40900;52.710;6.438;2023-01-31T05:16:29;43.25;;;9.82;;
55003;SDS011;40900;52.710;6.438;2023-01-31T05:18:55;33.50;;;7.10;;
55003;SDS011;40900;52.710;6.438;2023-01-31T05:21:20;35.53;;;7.50;;
55003;SDS011;40900;52.710;6.438;2023-01-31T05:23:46;32.42;;;7.43;;
55003;SDS011;40900;52.710;6.438;2023-01-31T05:26:12;42.13;;;7.88;;
55003;SDS011;40900;52.710;6.438;2023-01-31T05:28:37;40.08;;;8.35;;
55003;SDS011;40900;52.710;6.438;2023-01-31T05:31:04;34.55;;;7.40;;
55003;SDS011;40900;52.710;6.438;2023-01-31T05:33:31;40.17;;;9.05;;
55003;SDS011;40900;52.710;6.438;2023-01-31T05:35:57;32.53;;;7.47;;
55003;SDS011;40900;52.710;6.438;2023-01-31T05:38:24;34.83;;;7.43;;
55003;SDS011;40900;52.710;6.438;2023-01-31T05:40:50;36.17;;;8.75;;
55003;SDS011;40900;52.710;6.438;2023-01-31T05:43:16;40.75;;;8.52;;
55003;SDS011;40900;52.710;6.438;2023-01-31T05:45:41;49.30;;;9.02;;
55003;SDS011;40900;52.710;6.438;2023-01-31T05:48:07;46.70;;;9.30;;
55003;SDS011;40900;52.710;6.438;2023-01-31T05:50:33;44.17;;;9.43;;
55003;SDS011;40900;52.710;6.438;2023-01-31T05:52:59;42.08;;;9.57;;
55003;SDS011;40900;52.710;6.438;2023-01-31T05:55:27;41.85;;;10.63;;
55003;SDS011;40900;52.710;6.438;2023-01-31T05:57:53;43.22;;;9.13;;
55003;SDS011;40900;52.710;6.438;2023-01-31T06:00:19;38.15;;;10.80;;
55003;SDS011;40900;52.710;6.438;2023-01-31T06:02:46;45.10;;;10.32;;
55003;SDS011;40900;52.710;6.438;2023-01-31T06:05:12;47.63;;;12.02;;
55003;SDS011;40900;52.710;6.438;2023-01-31T06:07:38;44.45;;;11.82;;
55003;SDS011;40900;52.710;6.438;2023-01-31T06:10:05;42.38;;;12.00;;
55003;SDS011;40900;52.710;6.438;2023-01-31T06:12:32;41.70;;;11.27;;
55003;SDS011;40900;52.710;6.438;2023-01-31T06:14:58;48.03;;;11.98;;
55003;SDS011;40900;52.710;6.438;2023-01-31T06:17:23;54.80;;;13.27;;
55003;SDS011;40900;52.710;6.438;2023-01-31T06:19:49;41.10;;;12.15;;
55003;SDS011;40900;52.710;6.438;2023-01-31T06:22:15;54.90;;;12.90;;
55003;SDS011;40900;52.710;6.438;2023-01-31T06:24:41;41.08;;;11.73;;
55003;SDS011;40900;52.710;6.438;2023-01-31T06:27:07;44.80;;;11.50;;
55003;SDS011;40900;52.710;6.438;2023-01-31T06:29:33;42.75;;;12.30;;
55003;SDS011;40900;52.710;6.438;2023-01-31T06:31:59;41.42;;;10.93;;
55003;SDS011;40900;52.710;6.438;2023-01-31T06:34:24;41.75;;;11.80;;
55003;SDS011;40900;52.710;6.438;2023-01-31T06:36:50;49.30;;;11.73;;
55003;SDS011;40900;52.710;6.438;2023-01-31T06:39:16;44.03;;;12.27;;
55003;SDS011;40900;52.710;6.438;2023-01-31T06:41:42;49.97;;;12.80;;
55003;SDS011;40900;52.710;6.438;2023-01-31T06:44:07;55.30;;;13.20;;
55003;SDS011;40900;52.710;6.438;2023-01-31T06:46:33;39.90;;;10.02;;
55003;SDS011;40900;52.710;6.438;2023-01-31T06:48:59;51.80;;;11.32;;
55003;SDS011;40900;52.710;6.438;2023-01-31T06:51:25;47.75;;;12.38;;
55003;SDS011;40900;52.710;6.438;2023-01-31T06:53:51;52.10;;;11.68;;
55003;SDS011;40900;52.710;6.438;2023-01-31T06:56:17;53.97;;;11.52;;
55003;SDS011;40900;52.710;6.438;2023-01-31T06:58:43;49.30;;;11.63;;
55003;SDS011;40900;52.710;6.438;2023-01-31T07:01:10;35.72;;;10.52;;
55003;SDS011;40900;52.710;6.438;2023-01-31T07:03:38;41.25;;;10.38;;
55003;SDS011;40900;52.710;6.438;2023-01-31T07:06:04;43.50;;;10.98;;
55003;SDS011;40900;52.710;6.438;2023-01-31T07:08:31;45.72;;;9.88;;
55003;SDS011;40900;52.710;6.438;2023-01-31T07:10:57;47.50;;;10.10;;
55003;SDS011;40900;52.710;6.438;2023-01-31T07:13:22;39.65;;;10.30;;
55003;SDS011;40900;52.710;6.438;2023-01-31T07:15:48;45.95;;;10.15;;
55003;SDS011;40900;52.710;6.438;2023-01-31T07:18:14;32.80;;;9.75;;
55003;SDS011;40900;52.710;6.438;2023-01-31T07:20:40;38.97;;;9.68;;
55003;SDS011;40900;52.710;6.438;2023-01-31T07:23:07;37.88;;;8.73;;
55003;SDS011;40900;52.710;6.438;2023-01-31T07:25:33;35.30;;;8.23;;
55003;SDS011;40900;52.710;6.438;2023-01-31T07:28:00;37.22;;;8.68;;
55003;SDS011;40900;52.710;6.438;2023-01-31T07:30:26;33.90;;;7.55;;
55003;SDS011;40900;52.710;6.438;2023-01-31T07:32:52;37.35;;;9.13;;
55003;SDS011;40900;52.710;6.438;2023-01-31T07:35:19;38.72;;;8.95;;
55003;SDS011;40900;52.710;6.438;2023-01-31T07:37:45;36.90;;;8.38;;
55003;SDS011;40900;52.710;6.438;2023-01-31T07:40:11;39.42;;;8.88;;
55003;SDS011;40900;52.710;6.438;2023-01-31T07:42:38;35.92;;;7.82;;
55003;SDS011;40900;52.710;6.438;2023-01-31T07:45:05;31.83;;;6.95;;
55003;SDS011;40900;52.710;6.438;2023-01-31T07:47:33;39.03;;;7.57;;
55003;SDS011;40900;52.710;6.438;2023-01-31T07:49:59;28.77;;;7.55;;
55003;SDS011;40900;52.710;6.438;2023-01-31T07:52:24;34.30;;;6.93;;
55003;SDS011;40900;52.710;6.438;2023-01-31T07:54:50;31.02;;;7.32;;
55003;SDS011;40900;52.710;6.438;2023-01-31T07:57:16;47.47;;;9.13;;
55003;SDS011;40900;52.710;6.438;2023-01-31T07:59:44;41.17;;;9.25;;
55003;SDS011;40900;52.710;6.438;2023-01-31T08:02:11;36.22;;;8.25;;
55003;SDS011;40900;52.710;6.438;2023-01-31T08:04:56;31.80;;;8.80;;
55003;SDS011;40900;52.710;6.438;2023-01-31T08:07:21;31.13;;;6.65;;
55003;SDS011;40900;52.710;6.438;2023-01-31T08:09:47;28.42;;;7.13;;
55003;SDS011;40900;52.710;6.438;2023-01-31T08:12:14;39.03;;;7.15;;
55003;SDS011;40900;52.710;6.438;2023-01-31T08:14:40;38.28;;;8.05;;
55003;SDS011;40900;52.710;6.438;2023-01-31T08:17:06;35.55;;;7.55;;
55003;SDS011;40900;52.710;6.438;2023-01-31T08:19:32;36.50;;;7.22;;
55003;SDS011;40900;52.710;6.438;2023-01-31T08:21:59;38.67;;;7.70;;
55003;SDS011;40900;52.710;6.438;2023-01-31T08:24:25;38.92;;;8.32;;
55003;SDS011;40900;52.710;6.438;2023-01-31T08:26:50;39.95;;;7.93;;
55003;SDS011;40900;52.710;6.438;2023-01-31T08:29:16;39.13;;;7.65;;
55003;SDS011;40900;52.710;6.438;2023-01-31T08:31:42;43.17;;;8.05;;
55003;SDS011;40900;52.710;6.438;2023-01-31T08:34:08;33.92;;;6.90;;
55003;SDS011;40900;52.710;6.438;2023-01-31T08:36:34;30.63;;;6.55;;
55003;SDS011;40900;52.710;6.438;2023-01-31T08:39:00;34.67;;;7.53;;
55003;SDS011;40900;52.710;6.438;2023-01-31T08:41:26;35.97;;;7.15;;
55003;SDS011;40900;52.710;6.438;2023-01-31T08:43:53;34.78;;;6.93;;
55003;SDS011;40900;52.710;6.438;2023-01-31T08:46:20;39.30;;;7.93;;
55003;SDS011;40900;52.710;6.438;2023-01-31T08:48:46;36.42;;;7.10;;
55003;SDS011;40900;52.710;6.438;2023-01-31T08:51:12;37.42;;;7.50;;
55003;SDS011;40900;52.710;6.438;2023-01-31T08:53:41;33.97;;;7.85;;
55003;SDS011;40900;52.710;6.438;2023-01-31T08:56:09;29.25;;;7.70;;
55003;SDS011;40900;52.710;6.438;2023-01-31T08:58:37;30.25;;;7.45;;
55003;SDS011;40900;52.710;6.438;2023-01-31T09:01:05;32.08;;;7.15;;
55003;SDS011;40900;52.710;6.438;2023-01-31T09:03:32;28.75;;;6.40;;
55003;SDS011;40900;52.710;6.438;2023-01-31T09:05:58;37.47;;;7.78;;
55003;SDS011;40900;52.710;6.438;2023-01-31T09:08:24;33.00;;;7.97;;
55003;SDS011;40900;52.710;6.438;2023-01-31T09:10:51;27.23;;;7.03;;
55003;SDS011;40900;52.710;6.438;2023-01-31T09:13:20;31.70;;;8.02;;
55003;SDS011;40900;52.710;6.438;2023-01-31T09:15:46;37.03;;;7.90;;
55003;SDS011;40900;52.710;6.438;2023-01-31T09:18:12;27.70;;;7.00;;
55003;SDS011;40900;52.710;6.438;2023-01-31T09:20:37;31.88;;;6.65;;
55003;SDS011;40900;52.710;6.438;2023-01-31T09:23:03;29.60;;;6.72;;
55003;SDS011;40900;52.710;6.438;2023-01-31T09:25:29;29.42;;;6.43;;
55003;SDS011;40900;52.710;6.438;2023-01-31T09:27:54;27.88;;;5.55;;
55003;SDS011;40900;52.710;6.438;2023-01-31T09:30:20;20.42;;;5.20;;
55003;SDS011;40900;52.710;6.438;2023-01-31T09:32:46;25.27;;;6.28;;
55003;SDS011;40900;52.710;6.438;2023-01-31T09:35:13;22.77;;;5.95;;
55003;SDS011;40900;52.710;6.438;2023-01-31T09:37:40;28.05;;;6.18;;
55003;SDS011;40900;52.710;6.438;2023-01-31T09:40:06;27.88;;;5.70;;
55003;SDS011;40900;52.710;6.438;2023-01-31T09:42:41;25.83;;;5.50;;
55003;SDS011;40900;52.710;6.438;2023-01-31T09:45:13;24.30;;;5.43;;
55003;SDS011;40900;52.710;6.438;2023-01-31T09:47:47;26.65;;;5.72;;
55003;SDS011;40900;52.710;6.438;2023-01-31T09:50:19;28.33;;;5.93;;
55003;SDS011;40900;52.710;6.438;2023-01-31T09:53:05;26.65;;;5.28;;
55003;SDS011;40900;52.710;6.438;2023-01-31T09:58:24;26.05;;;4.50;;
55003;SDS011;40900;52.710;6.438;2023-01-31T10:01:23;31.60;;;6.00;;
55003;SDS011;40900;52.710;6.438;2023-01-31T10:04:15;22.45;;;4.18;;
55003;SDS011;40900;52.710;6.438;2023-01-31T10:07:00;30.75;;;5.75;;
55003;SDS011;40900;52.710;6.438;2023-01-31T10:09:39;26.65;;;5.35;;
55003;SDS011;40900;52.710;6.438;2023-01-31T10:12:29;24.27;;;4.50;;
55003;SDS011;40900;52.710;6.438;2023-01-31T10:18:15;27.05;;;5.63;;
55003;SDS011;40900;52.710;6.438;2023-01-31T10:34:44;21.15;;;4.47;;
55003;SDS011;40900;52.710;6.438;2023-01-31T10:40:03;20.60;;;5.03;;
55003;SDS011;40900;52.710;6.438;2023-01-31T10:42:38;25.70;;;5.38;;
55003;SDS011;40900;52.710;6.438;2023-01-31T10:47:33;20.02;;;5.30;;
55003;SDS011;40900;52.710;6.438;2023-01-31T10:50:00;22.17;;;4.65;;
55003;SDS011;40900;52.710;6.438;2023-01-31T10:53:11;23.95;;;5.20;;
55003;SDS011;40900;52.710;6.438;2023-01-31T10:58:11;23.93;;;4.93;;
55003;SDS011;40900;52.710;6.438;2023-01-31T11:00:40;35.78;;;5.22;;
55003;SDS011;40900;52.710;6.438;2023-01-31T11:03:06;30.67;;;5.20;;
55003;SDS011;40900;52.710;6.438;2023-01-31T11:05:34;34.25;;;6.22;;
55003;SDS011;40900;52.710;6.438;2023-01-31T11:08:17;29.83;;;5.88;;
55003;SDS011;40900;52.710;6.438;2023-01-31T11:10:51;27.45;;;5.70;;
55003;SDS011;40900;52.710;6.438;2023-01-31T11:13:19;27.15;;;6.20;;
55003;SDS011;40900;52.710;6.438;2023-01-31T11:15:45;35.75;;;6.38;;
55003;SDS011;40900;52.710;6.438;2023-01-31T11:20:55;38.17;;;6.68;;
55003;SDS011;40900;52.710;6.438;2023-01-31T11:23:24;37.83;;;6.72;;
55003;SDS011;40900;52.710;6.438;2023-01-31T11:25:52;30.95;;;6.18;;
55003;SDS011;40900;52.710;6.438;2023-01-31T11:30:47;36.30;;;6.88;;
55003;SDS011;40900;52.710;6.438;2023-01-31T11:36:06;33.05;;;6.97;;
55003;SDS011;40900;52.710;6.438;2023-01-31T11:38:33;34.42;;;6.05;;
55003;SDS011;40900;52.710;6.438;2023-01-31T11:40:59;27.30;;;5.70;;
55003;SDS011;40900;52.710;6.438;2023-01-31T11:43:25;34.55;;;7.03;;
55003;SDS011;40900;52.710;6.438;2023-01-31T11:45:58;33.95;;;7.10;;
55003;SDS011;40900;52.710;6.438;2023-01-31T11:48:31;28.60;;;5.38;;
55003;SDS011;40900;52.710;6.438;2023-01-31T11:51:08;28.08;;;5.25;;
55003;SDS011;40900;52.710;6.438;2023-01-31T11:58:48;28.80;;;5.93;;
55003;SDS011;40900;52.710;6.438;2023-01-31T12:01:19;35.63;;;6.53;;
55003;SDS011;40900;52.710;6.438;2023-01-31T12:03:47;29.70;;;5.82;;
55003;SDS011;40900;52.710;6.438;2023-01-31T12:06:32;38.22;;;6.32;;
55003;SDS011;40900;52.710;6.438;2023-01-31T12:08:58;26.35;;;4.97;;
55003;SDS011;40900;52.710;6.438;2023-01-31T12:11:32;32.08;;;5.00;;
55003;SDS011;40900;52.710;6.438;2023-01-31T12:14:12;27.58;;;5.80;;
55003;SDS011;40900;52.710;6.438;2023-01-31T12:16:40;36.13;;;5.65;;
55003;SDS011;40900;52.710;6.438;2023-01-31T12:19:11;25.80;;;5.38;;
55003;SDS011;40900;52.710;6.438;2023-01-31T12:30:19;27.98;;;5.05;;
55003;SDS011;40900;52.710;6.438;2023-01-31T12:55:38;30.75;;;5.13;;
55003;SDS011;40900;52.710;6.438;2023-01-31T12:58:29;24.80;;;4.43;;
55003;SDS011;40900;52.710;6.438;2023-01-31T13:06:42;23.40;;;4.17;;
55003;SDS011;40900;52.710;6.438;2023-01-31T13:09:20;26.23;;;5.28;;
55003;SDS011;40900;52.710;6.438;2023-01-31T13:11:55;26.38;;;4.85;;
55003;SDS011;40900;52.710;6.438;2023-01-31T13:14:29;18.80;;;4.43;;
55003;SDS011;40900;52.710;6.438;2023-01-31T13:17:01;20.20;;;4.57;;
55003;SDS011;40900;52.710;6.438;2023-01-31T13:19:33;24.58;;;4.90;;
55003;SDS011;40900;52.710;6.438;2023-01-31T13:22:10;19.75;;;3.72;;
55003;SDS011;40900;52.710;6.438;2023-01-31T13:24:47;25.90;;;5.45;;
55003;SDS011;40900;52.710;6.438;2023-01-31T13:27:19;21.70;;;4.68;;
55003;SDS011;40900;52.710;6.438;2023-01-31T13:29:55;18.88;;;4.25;;
55003;SDS011;40900;52.710;6.438;2023-01-31T13:32:26;22.83;;;5.13;;
55003;SDS011;40900;52.710;6.438;2023-01-31T13:37:47;20.13;;;4.85;;
55003;SDS011;40900;52.710;6.438;2023-01-31T13:40:28;28.45;;;5.03;;
55003;SDS011;40900;52.710;6.438;2023-01-31T13:43:03;23.60;;;4.35;;
55003;SDS011;40900;52.710;6.438;2023-01-31T13:45:39;18.48;;;3.97;;
55003;SDS011;40900;52.710;6.438;2023-01-31T13:48:41;20.13;;;4.07;;
55003;SDS011;40900;52.710;6.438;2023-01-31T13:51:24;17.20;;;3.42;;
55003;SDS011;40900;52.710;6.438;2023-01-31T13:56:40;22.00;;;3.97;;
55003;SDS011;40900;52.710;6.438;2023-01-31T13:59:10;18.42;;;4.57;;
55003;SDS011;40900;52.710;6.438;2023-01-31T14:01:46;20.33;;;5.07;;
55003;SDS011;40900;52.710;6.438;2023-01-31T14:11:48;21.75;;;4.20;;
55003;SDS011;40900;52.710;6.438;2023-01-31T14:16:46;18.38;;;4.75;;
55003;SDS011;40900;52.710;6.438;2023-01-31T14:21:52;20.30;;;3.63;;
55003;SDS011;40900;52.710;6.438;2023-01-31T14:27:20;20.80;;;4.47;;
55003;SDS011;40900;52.710;6.438;2023-01-31T14:32:41;24.10;;;4.25;;
55003;SDS011;40900;52.710;6.438;2023-01-31T14:37:50;18.73;;;4.70;;
55003;SDS011;40900;52.710;6.438;2023-01-31T14:43:52;21.63;;;4.03;;
55003;SDS011;40900;52.710;6.438;2023-01-31T14:52:14;18.27;;;3.65;;
55003;SDS011;40900;52.710;6.438;2023-01-31T14:57:41;24.53;;;4.30;;
55003;SDS011;40900;52.710;6.438;2023-01-31T15:00:19;28.90;;;6.32;;
55003;SDS011;40900;52.710;6.438;2023-01-31T15:03:06;28.77;;;4.32;;
55003;SDS011;40900;52.710;6.438;2023-01-31T15:18:46;20.05;;;4.93;;
55003;SDS011;40900;52.710;6.438;2023-01-31T15:21:46;32.72;;;4.80;;
55003;SDS011;40900;52.710;6.438;2023-01-31T15:24:17;29.90;;;6.05;;
55003;SDS011;40900;52.710;6.438;2023-01-31T15:26:48;23.25;;;4.72;;
55003;SDS011;40900;52.710;6.438;2023-01-31T15:29:17;19.70;;;4.38;;
55003;SDS011;40900;52.710;6.438;2023-01-31T15:31:46;26.50;;;5.03;;
55003;SDS011;40900;52.710;6.438;2023-01-31T15:34:15;31.63;;;5.80;;
55003;SDS011;40900;52.710;6.438;2023-01-31T15:37:07;29.60;;;6.35;;
55003;SDS011;40900;52.710;6.438;2023-01-31T15:39:56;25.33;;;4.85;;
55003;SDS011;40900;52.710;6.438;2023-01-31T15:42:28;26.52;;;5.13;;
55003;SDS011;40900;52.710;6.438;2023-01-31T15:47:41;24.15;;;4.50;;
55003;SDS011;40900;52.710;6.438;2023-01-31T15:50:17;22.98;;;5.25;;
55003;SDS011;40900;52.710;6.438;2023-01-31T15:52:44;31.98;;;5.10;;
55003;SDS011;40900;52.710;6.438;2023-01-31T15:55:11;38.30;;;5.53;;
55003;SDS011;40900;52.710;6.438;2023-01-31T15:57:45;29.40;;;6.07;;
55003;SDS011;40900;52.710;6.438;2023-01-31T16:00:19;25.13;;;5.38;;
55003;SDS011;40900;52.710;6.438;2023-01-31T16:02:49;35.58;;;5.75;;
55003;SDS011;40900;52.710;6.438;2023-01-31T16:05:24;24.73;;;5.38;;
55003;SDS011;40900;52.710;6.438;2023-01-31T16:07:50;27.40;;;4.78;;
55003;SDS011;40900;52.710;6.438;2023-01-31T16:10:16;31.98;;;5.75;;
55003;SDS011;40900;52.710;6.438;2023-01-31T16:12:48;30.88;;;6.75;;
55003;SDS011;40900;52.710;6.438;2023-01-31T16:15:27;32.05;;;6.25;;
55003;SDS011;40900;52.710;6.438;2023-01-31T16:17:55;23.65;;;4.90;;
55003;SDS011;40900;52.710;6.438;2023-01-31T16:20:58;29.52;;;4.95;;
55003;SDS011;40900;52.710;6.438;2023-01-31T16:23:31;30.27;;;5.68;;
55003;SDS011;40900;52.710;6.438;2023-01-31T16:26:42;30.17;;;5.90;;
55003;SDS011;40900;52.710;6.438;2023-01-31T16:28:50;33.45;;;6.00;;
55003;SDS011;40900;52.710;6.438;2023-01-31T16:31:19;28.98;;;4.97;;
55003;SDS011;40900;52.710;6.438;2023-01-31T16:33:50;23.58;;;5.55;;
55003;SDS011;40900;52.710;6.438;2023-01-31T16:36:26;31.83;;;5.35;;
55003;SDS011;40900;52.710;6.438;2023-01-31T16:39:01;30.05;;;6.50;;
55003;SDS011;40900;52.710;6.438;2023-01-31T16:41:37;28.25;;;4.97;;
55003;SDS011;40900;52.710;6.438;2023-01-31T16:44:05;38.75;;;7.38;;
55003;SDS011;40900;52.710;6.438;2023-01-31T16:46:37;32.58;;;6.18;;
55003;SDS011;40900;52.710;6.438;2023-01-31T16:49:05;26.92;;;5.72;;
55003;SDS011;40900;52.710;6.438;2023-01-31T16:51:41;34.65;;;6.38;;
55003;SDS011;40900;52.710;6.438;2023-01-31T16:54:15;28.95;;;6.93;;
55003;SDS011;40900;52.710;6.438;2023-01-31T16:59:54;33.92;;;5.70;;
55003;SDS011;40900;52.710;6.438;2023-01-31T17:04:50;27.30;;;5.10;;
55003;SDS011;40900;52.710;6.438;2023-01-31T17:07:19;28.13;;;5.20;;
55003;SDS011;40900;52.710;6.438;2023-01-31T17:09:45;34.72;;;6.03;;
55003;SDS011;40900;52.710;6.438;2023-01-31T17:12:22;33.38;;;5.90;;
55003;SDS011;40900;52.710;6.438;2023-01-31T17:14:50;31.42;;;5.57;;
55003;SDS011;40900;52.710;6.438;2023-01-31T17:17:21;32.13;;;6.20;;
55003;SDS011;40900;52.710;6.438;2023-01-31T17:19:51;30.05;;;5.88;;
55003;SDS011;40900;52.710;6.438;2023-01-31T17:22:17;35.42;;;6.20;;
55003;SDS011;40900;52.710;6.438;2023-01-31T17:24:42;30.58;;;5.72;;
55003;SDS011;40900;52.710;6.438;2023-01-31T17:27:13;30.17;;;5.75;;
55003;SDS011;40900;52.710;6.438;2023-01-31T17:29:40;34.17;;;5.43;;
55003;SDS011;40900;52.710;6.438;2023-01-31T17:32:08;31.85;;;5.53;;
55003;SDS011;40900;52.710;6.438;2023-01-31T17:34:36;24.83;;;4.80;;
55003;SDS011;40900;52.710;6.438;2023-01-31T17:37:02;27.45;;;5.13;;
55003;SDS011;40900;52.710;6.438;2023-01-31T17:39:27;29.13;;;5.93;;
55003;SDS011;40900;52.710;6.438;2023-01-31T17:41:53;34.53;;;6.00;;